createdAt,value
2018-09-26T00:00:06.524Z,38.73
2018-09-26T00:02:32.512Z,38.54
2018-09-26T00:04:58.500Z,38.69
2018-09-26T00:07:24.485Z,38.37
2018-09-26T00:09:50.504Z,39.07
2018-09-26T00:12:16.521Z,38.60
2018-09-26T00:14:42.530Z,38.58
2018-09-26T00:17:08.547Z,38.78
2018-09-26T00:19:34.553Z,38.83
2018-09-26T00:22:00.561Z,38.75
2018-09-26T00:24:26.553Z,38.31
2018-09-26T00:26:52.551Z,38.51
2018-09-26T00:29:18.530Z,38.74
2018-09-26T00:31:44.551Z,38.75
2018-09-26T00:34:10.533Z,38.54
2018-09-26T00:36:36.522Z,38.43
2018-09-26T00:39:02.543Z,38.49
2018-09-26T00:41:28.525Z,38.69
2018-09-26T00:43:54.507Z,38.41
2018-09-26T00:46:20.495Z,38.70
2018-09-26T00:48:46.500Z,38.47
2018-09-26T00:51:12.487Z,38.77
2018-09-26T00:53:38.478Z,38.40
2018-09-26T00:56:04.482Z,38.70
2018-09-26T00:58:30.558Z,38.37
2018-09-26T01:00:56.552Z,38.39
2018-09-26T01:03:22.572Z,38.63
2018-09-26T01:05:48.584Z,38.55
2018-09-26T01:08:14.570Z,38.45
2018-09-26T01:10:40.555Z,38.43
2018-09-26T01:13:06.557Z,38.40
2018-09-26T01:15:32.571Z,38.37
2018-09-26T01:17:58.552Z,38.27
2018-09-26T01:20:24.572Z,38.29
2018-09-26T01:22:50.580Z,38.29
2018-09-26T01:25:16.598Z,38.35
2018-09-26T01:27:42.583Z,38.38
2018-09-26T01:30:08.575Z,38.61
2018-09-26T01:32:34.551Z,38.26
2018-09-26T01:35:00.564Z,38.43
2018-09-26T01:37:26.583Z,38.33
2018-09-26T01:39:52.573Z,38.50
2018-09-26T01:42:18.592Z,38.11
2018-09-26T01:44:44.593Z,38.20
2018-09-26T01:47:10.655Z,38.47
2018-09-26T01:49:36.636Z,38.21
2018-09-26T01:52:02.623Z,38.45
2018-09-26T01:54:28.710Z,38.57
2018-09-26T01:56:54.717Z,38.45
2018-09-26T01:59:20.726Z,38.16
2018-09-26T02:01:46.747Z,38.35
2018-09-26T02:04:12.740Z,38.56
2018-09-26T02:06:38.752Z,38.36
2018-09-26T02:09:04.765Z,38.32
2018-09-26T02:11:30.740Z,38.39
2018-09-26T02:13:56.733Z,38.09
2018-09-26T02:16:22.794Z,38.30
2018-09-26T02:18:48.730Z,38.25
2018-09-26T02:21:14.742Z,38.72
2018-09-26T02:23:40.757Z,38.15
2018-09-26T02:26:06.732Z,38.33
2018-09-26T02:28:32.724Z,38.14
2018-09-26T02:30:58.712Z,38.18
2018-09-26T02:33:24.715Z,38.07
2018-09-26T02:35:50.713Z,38.53
2018-09-26T02:38:16.720Z,38.46
2018-09-26T02:40:42.730Z,38.06
2018-09-26T02:43:08.749Z,38.02
2018-09-26T02:45:34.766Z,37.99
2018-09-26T02:48:00.786Z,38.25
2018-09-26T02:50:26.753Z,38.27
2018-09-26T02:52:52.776Z,38.72
2018-09-26T02:55:18.782Z,38.15
2018-09-26T02:57:44.769Z,38.01
2018-09-26T03:00:10.749Z,37.88
2018-09-26T03:02:36.730Z,38.42
2018-09-26T03:05:02.725Z,38.60
2018-09-26T03:07:28.712Z,38.39
2018-09-26T03:09:54.716Z,38.33
2018-09-26T03:12:20.700Z,38.27
2018-09-26T03:14:46.688Z,38.14
2018-09-26T03:17:12.667Z,38.22
2018-09-26T03:19:38.679Z,38.22
2018-09-26T03:22:04.681Z,38.22
2018-09-26T03:24:30.668Z,38.01
2018-09-26T03:26:56.652Z,37.95
2018-09-26T03:29:22.646Z,38.20
2018-09-26T03:31:48.633Z,38.39
2018-09-26T03:34:14.614Z,38.40
2018-09-26T03:36:40.628Z,38.15
2018-09-26T03:39:06.630Z,38.41
2018-09-26T03:41:32.685Z,37.87
2018-09-26T03:43:58.706Z,38.08
2018-09-26T03:46:24.715Z,37.90
2018-09-26T03:48:50.708Z,38.39
2018-09-26T03:51:16.690Z,38.58
2018-09-26T03:53:42.697Z,38.84
2018-09-26T03:56:08.723Z,38.30
2018-09-26T03:58:34.737Z,38.46
2018-09-26T04:01:00.727Z,38.37
2018-09-26T04:03:26.738Z,38.82
2018-09-26T04:05:52.731Z,38.79
2018-09-26T04:08:18.706Z,39.20
2018-09-26T04:10:44.693Z,38.89
2018-09-26T04:13:10.737Z,39.00
2018-09-26T04:15:36.709Z,38.88
2018-09-26T04:18:02.733Z,38.41
2018-09-26T04:20:28.797Z,38.90
2018-09-26T04:22:54.759Z,39.11
2018-09-26T04:25:20.773Z,39.24
2018-09-26T04:27:46.808Z,39.92
2018-09-26T04:30:12.889Z,39.09
2018-09-26T04:32:38.978Z,39.43
2018-09-26T04:35:04.887Z,39.48
2018-09-26T04:37:30.912Z,39.39
2018-09-26T04:39:56.920Z,39.98
2018-09-26T04:42:23.328Z,39.61
2018-09-26T04:44:49.296Z,39.47
2018-09-26T04:47:15.335Z,39.80
2018-09-26T04:49:41.354Z,39.57
2018-09-26T04:52:07.380Z,40.03
2018-09-26T04:54:33.373Z,40.62
2018-09-26T04:56:59.377Z,40.07
2018-09-26T04:59:25.829Z,40.08
2018-09-26T05:01:51.770Z,40.13
2018-09-26T05:04:17.784Z,40.27
2018-09-26T05:06:43.770Z,40.21
2018-09-26T05:09:09.808Z,40.09
2018-09-26T05:11:35.827Z,40.07
2018-09-26T05:14:01.839Z,40.29
2018-09-26T05:16:27.851Z,40.48
2018-09-26T05:18:53.832Z,40.26
2018-09-26T05:21:19.989Z,40.24
2018-09-26T05:23:46.040Z,39.85
2018-09-26T05:26:12.022Z,40.02
2018-09-26T05:28:38.004Z,40.21
2018-09-26T05:31:04.005Z,39.90
2018-09-26T05:33:29.981Z,39.72
2018-09-26T05:35:55.974Z,39.67
2018-09-26T05:38:21.957Z,39.62
2018-09-26T05:40:47.939Z,39.79
2018-09-26T05:43:14.012Z,40.04
2018-09-26T05:45:40.006Z,40.22
2018-09-26T05:48:06.097Z,40.05
2018-09-26T05:50:32.094Z,39.61
2018-09-26T05:52:58.145Z,38.48
2018-09-26T05:55:24.128Z,39.01
2018-09-26T05:57:50.137Z,38.83
2018-09-26T06:00:16.271Z,38.66
2018-09-26T06:02:42.286Z,38.64
2018-09-26T06:05:08.267Z,38.84
2018-09-26T06:07:34.257Z,38.91
2018-09-26T06:10:00.266Z,39.02
2018-09-26T06:12:26.246Z,39.09
2018-09-26T06:14:52.427Z,39.09
2018-09-26T06:17:18.458Z,38.45
2018-09-26T06:19:44.470Z,38.16
2018-09-26T06:22:10.609Z,38.37
2018-09-26T06:24:36.642Z,38.43
2018-09-26T06:27:02.593Z,38.28
2018-09-26T06:29:28.583Z,37.67
2018-09-26T06:31:54.670Z,37.49
2018-09-26T06:34:21.900Z,37.89
2018-09-26T06:36:48.173Z,37.64
2018-09-26T06:39:14.227Z,38.06
2018-09-26T06:41:40.211Z,38.73
2018-09-26T06:44:06.186Z,38.76
2018-09-26T06:46:32.188Z,38.46
2018-09-26T06:48:58.246Z,39.05
2018-09-26T06:51:24.232Z,38.59
2018-09-26T06:53:50.278Z,38.80
2018-09-26T06:56:16.231Z,39.33
2018-09-26T06:58:42.259Z,40.24
2018-09-26T07:01:08.257Z,38.62
2018-09-26T07:03:34.376Z,38.65
2018-09-26T07:06:00.458Z,39.04
2018-09-26T07:08:26.441Z,38.53
2018-09-26T07:10:52.424Z,39.06
2018-09-26T07:13:18.435Z,37.64
2018-09-26T07:15:44.580Z,39.45
2018-09-26T07:18:10.572Z,36.95
2018-09-26T07:20:36.585Z,36.88
2018-09-26T07:23:02.600Z,36.92
2018-09-26T07:25:28.612Z,37.15
2018-09-26T07:27:54.634Z,36.27
2018-09-26T07:30:20.617Z,36.20
2018-09-26T07:32:46.654Z,36.16
2018-09-26T07:35:12.684Z,35.87
2018-09-26T07:37:38.646Z,35.92
2018-09-26T07:40:04.639Z,37.94
2018-09-26T07:42:30.623Z,36.08
2018-09-26T07:44:56.618Z,35.19
2018-09-26T07:47:22.599Z,36.40
2018-09-26T07:49:48.604Z,37.01
2018-09-26T07:52:14.629Z,36.39
2018-09-26T07:54:40.612Z,36.26
2018-09-26T07:57:06.617Z,36.46
2018-09-26T07:59:32.619Z,35.93
2018-09-26T08:01:58.598Z,36.11
2018-09-26T08:04:24.600Z,35.18
2018-09-26T08:06:50.587Z,35.70
2018-09-26T08:09:16.576Z,38.78
2018-09-26T08:11:42.604Z,35.67
2018-09-26T08:14:08.580Z,35.46
2018-09-26T08:16:34.658Z,36.97
2018-09-26T08:19:00.650Z,36.99
2018-09-26T08:21:26.708Z,36.94
2018-09-26T08:23:52.737Z,37.39
2018-09-26T08:26:18.743Z,36.87
2018-09-26T08:28:44.993Z,37.04
2018-09-26T08:31:10.995Z,37.13
2018-09-26T08:33:37.007Z,37.44
2018-09-26T08:36:03.013Z,37.39
2018-09-26T08:38:29.006Z,38.44
2018-09-26T08:40:55.053Z,37.59
2018-09-26T08:43:21.057Z,37.87
2018-09-26T08:45:47.066Z,37.62
2018-09-26T08:48:14.238Z,38.04
2018-09-26T08:50:40.254Z,38.15
2018-09-26T08:53:06.231Z,38.08
2018-09-26T08:55:32.281Z,38.13
2018-09-26T08:57:58.313Z,37.93
2018-09-26T09:00:24.344Z,38.12
2018-09-26T09:02:50.404Z,37.85
2018-09-26T09:05:16.400Z,37.95
2018-09-26T09:07:42.408Z,38.28
2018-09-26T09:10:08.396Z,38.34
2018-09-26T09:12:34.366Z,38.10
2018-09-26T09:15:00.380Z,38.01
2018-09-26T09:17:26.402Z,38.07
2018-09-26T09:19:52.377Z,37.86
2018-09-26T09:22:18.410Z,38.20
2018-09-26T09:24:44.410Z,37.95
2018-09-26T09:27:10.461Z,37.63
2018-09-26T09:29:36.400Z,37.76
2018-09-26T09:32:02.467Z,38.06
2018-09-26T09:34:28.394Z,37.84
2018-09-26T09:36:54.416Z,37.33
2018-09-26T09:39:20.419Z,37.92
2018-09-26T09:41:46.399Z,37.46
2018-09-26T09:44:12.400Z,37.71
2018-09-26T09:46:38.404Z,37.44
2018-09-26T09:49:04.485Z,37.85
2018-09-26T09:51:30.478Z,37.84
2018-09-26T09:53:56.478Z,37.58
2018-09-26T09:56:22.584Z,37.55
2018-09-26T09:58:48.567Z,37.38
2018-09-26T10:01:14.561Z,37.53
2018-09-26T10:03:40.603Z,37.72
2018-09-26T10:06:06.606Z,37.32
2018-09-26T10:08:36.793Z,37.52
2018-09-26T10:11:02.688Z,37.37
2018-09-26T10:13:28.677Z,37.68
2018-09-26T10:15:54.676Z,37.68
2018-09-26T10:18:20.701Z,37.08
2018-09-26T10:20:46.724Z,38.41
2018-09-26T10:23:12.704Z,38.30
2018-09-26T10:25:38.724Z,38.75
2018-09-26T10:28:04.770Z,38.58
2018-09-26T10:30:30.722Z,38.66
2018-09-26T10:32:56.728Z,38.58
2018-09-26T10:35:22.746Z,38.93
2018-09-26T10:37:48.757Z,39.19
2018-09-26T10:40:14.768Z,39.28
2018-09-26T10:42:40.885Z,39.56
2018-09-26T10:45:06.916Z,39.01
2018-09-26T10:47:32.958Z,38.82
2018-09-26T10:49:59.025Z,38.93
2018-09-26T10:52:25.033Z,39.48
2018-09-26T10:54:51.118Z,39.19
2018-09-26T10:57:17.108Z,39.65
2018-09-26T10:59:43.121Z,39.48
2018-09-26T11:02:09.192Z,40.30
2018-09-26T11:04:35.157Z,41.07
2018-09-26T11:07:01.143Z,41.74
2018-09-26T11:09:27.135Z,41.63
2018-09-26T11:11:53.155Z,41.64
2018-09-26T11:14:19.182Z,41.26
2018-09-26T11:16:45.181Z,41.39
2018-09-26T11:19:11.162Z,41.09
2018-09-26T11:21:37.171Z,40.96
2018-09-26T11:24:03.176Z,40.60
2018-09-26T11:26:29.280Z,40.53
2018-09-26T11:28:55.205Z,40.50
2018-09-26T11:31:21.195Z,40.57
2018-09-26T11:33:47.238Z,40.73
2018-09-26T11:36:13.225Z,40.37
2018-09-26T11:38:39.230Z,40.24
2018-09-26T11:41:05.250Z,40.58
2018-09-26T11:43:31.200Z,40.18
2018-09-26T11:45:57.246Z,40.54
2018-09-26T11:48:23.258Z,40.15
2018-09-26T11:50:49.273Z,40.11
2018-09-26T11:53:15.270Z,40.53
2018-09-26T11:55:41.257Z,40.15
2018-09-26T11:58:07.300Z,39.80
2018-09-26T12:00:33.348Z,39.82
2018-09-26T12:02:58.874Z,39.79
2018-09-26T12:05:24.351Z,40.09
2018-09-26T12:07:49.844Z,39.68
2018-09-26T12:10:15.341Z,39.62
2018-09-26T12:12:40.822Z,40.08
2018-09-26T12:15:06.295Z,39.84
2018-09-26T12:17:31.785Z,39.65
2018-09-26T12:19:57.258Z,39.58
2018-09-26T12:22:22.877Z,39.55
2018-09-26T12:24:48.256Z,39.50
2018-09-26T12:27:13.752Z,39.55
2018-09-26T12:29:39.238Z,39.35
2018-09-26T12:32:04.742Z,39.51
2018-09-26T12:34:30.225Z,39.40
2018-09-26T12:36:55.729Z,39.34
2018-09-26T12:39:21.223Z,39.30
2018-09-26T12:41:46.757Z,39.22
2018-09-26T12:44:12.243Z,39.34
2018-09-26T12:46:37.749Z,39.25
2018-09-26T12:49:03.326Z,39.15
2018-09-26T12:51:28.794Z,39.45
2018-09-26T12:53:54.451Z,39.18
2018-09-26T12:56:19.782Z,39.07
2018-09-26T12:58:45.288Z,38.98
2018-09-26T13:01:10.805Z,38.99
2018-09-26T13:03:36.304Z,39.47
2018-09-26T13:06:01.791Z,39.42
2018-09-26T13:08:27.337Z,39.06
2018-09-26T13:10:52.776Z,39.14
2018-09-26T13:13:18.273Z,39.05
2018-09-26T13:15:43.759Z,39.24
2018-09-26T13:18:09.287Z,39.21
2018-09-26T13:20:34.767Z,39.13
2018-09-26T13:23:00.270Z,38.96
2018-09-26T13:25:25.816Z,39.47
2018-09-26T13:27:51.268Z,39.13
2018-09-26T13:30:16.780Z,39.70
2018-09-26T13:32:42.307Z,39.53
2018-09-26T13:35:07.805Z,38.98
2018-09-26T13:37:33.388Z,39.11
2018-09-26T13:39:58.921Z,38.91
2018-09-26T13:42:24.463Z,39.05
2018-09-26T13:44:49.907Z,39.08
2018-09-26T13:47:15.414Z,39.13
2018-09-26T13:49:40.914Z,39.50
2018-09-26T13:52:06.468Z,39.67
2018-09-26T13:54:31.981Z,39.21
2018-09-26T13:56:57.403Z,39.02
2018-09-26T13:59:22.924Z,39.03
2018-09-26T14:01:48.416Z,39.25
2018-09-26T14:04:13.938Z,39.66
2018-09-26T14:06:39.458Z,39.34
2018-09-26T14:09:04.919Z,39.38
2018-09-26T14:11:30.429Z,39.87
2018-09-26T14:13:55.956Z,39.60
2018-09-26T14:16:21.461Z,39.77
2018-09-26T14:18:46.955Z,39.75
2018-09-26T14:21:12.453Z,40.06
2018-09-26T14:23:38.043Z,39.83
2018-09-26T14:26:03.449Z,39.96
2018-09-26T14:28:29.145Z,40.38
2018-09-26T14:30:57.086Z,40.03
2018-09-26T14:33:20.653Z,40.12
2018-09-26T14:35:46.110Z,39.95
2018-09-26T14:38:16.562Z,39.93
2018-09-26T14:40:41.841Z,39.79
2018-09-26T14:43:07.327Z,39.75
2018-09-26T14:45:32.888Z,39.78
2018-09-26T14:47:58.336Z,39.86
2018-09-26T14:50:23.915Z,39.86
2018-09-26T14:52:49.400Z,39.58
2018-09-26T14:55:14.870Z,39.57
2018-09-26T14:57:40.345Z,39.77
2018-09-26T15:00:05.844Z,39.57
2018-09-26T15:02:31.475Z,40.00
2018-09-26T15:04:56.973Z,39.80
2018-09-26T15:07:22.524Z,39.82
2018-09-26T15:09:47.956Z,39.73
2018-09-26T15:12:13.679Z,39.68
2018-09-26T15:14:39.113Z,40.03
2018-09-26T15:17:04.597Z,39.84
2018-09-26T15:19:30.228Z,39.98
2018-09-26T15:21:55.747Z,39.88
2018-09-26T15:24:21.302Z,39.91
2018-09-26T15:26:46.762Z,40.09
2018-09-26T15:29:12.256Z,39.81
2018-09-26T15:31:37.739Z,39.95
2018-09-26T15:34:03.211Z,40.06
2018-09-26T15:36:28.703Z,39.81
2018-09-26T15:38:54.178Z,40.15
2018-09-26T15:41:19.687Z,39.88
2018-09-26T15:43:45.219Z,40.14
2018-09-26T15:46:10.713Z,40.12
2018-09-26T15:48:36.305Z,40.08
2018-09-26T15:51:01.795Z,39.88
2018-09-26T15:53:27.279Z,39.77
2018-09-26T15:55:52.781Z,40.00
2018-09-26T15:58:18.295Z,39.89
2018-09-26T16:00:43.948Z,40.06
2018-09-26T16:03:09.458Z,40.32
2018-09-26T16:05:34.926Z,40.02
2018-09-26T16:08:00.417Z,39.92
2018-09-26T16:10:26.043Z,40.37
2018-09-26T16:12:51.464Z,40.18
2018-09-26T16:15:16.964Z,40.20
2018-09-26T16:17:42.483Z,40.28
2018-09-26T16:20:08.066Z,40.32
2018-09-26T16:22:33.553Z,41.06
2018-09-26T16:24:59.027Z,41.85
2018-09-26T16:27:24.572Z,42.50
2018-09-26T16:29:50.075Z,42.16
2018-09-26T16:32:15.631Z,42.07
2018-09-26T16:34:41.042Z,42.03
2018-09-26T16:37:06.546Z,41.99
2018-09-26T16:39:32.207Z,41.86
2018-09-26T16:41:57.569Z,41.26
2018-09-26T16:44:23.187Z,40.38
2018-09-26T16:46:49.261Z,40.90
2018-09-26T16:49:14.799Z,40.92
2018-09-26T16:51:40.283Z,39.85
2018-09-26T16:54:05.882Z,38.37
2018-09-26T16:56:31.309Z,37.28
2018-09-26T16:58:56.808Z,37.04
2018-09-26T17:01:22.286Z,36.79
2018-09-26T17:03:47.848Z,37.59
2018-09-26T17:06:13.468Z,38.60
2018-09-26T17:08:38.914Z,38.85
2018-09-26T17:11:04.466Z,38.87
2018-09-26T17:13:29.970Z,38.88
2018-09-26T17:15:55.492Z,39.93
2018-09-26T17:18:21.091Z,39.34
2018-09-26T17:20:46.532Z,39.37
2018-09-26T17:23:12.215Z,39.80
2018-09-26T17:25:37.728Z,39.33
2018-09-26T17:28:03.217Z,39.27
2018-09-26T17:30:28.718Z,39.87
2018-09-26T17:32:54.205Z,39.88
2018-09-26T17:35:19.756Z,40.16
2018-09-26T17:37:45.309Z,40.42
2018-09-26T17:40:10.783Z,40.46
2018-09-26T17:42:36.220Z,40.25
2018-09-26T17:45:01.732Z,40.66
2018-09-26T17:47:27.228Z,40.84
2018-09-26T17:49:53.100Z,40.96
2018-09-26T17:52:18.637Z,41.17
2018-09-26T17:54:44.219Z,41.32
2018-09-26T17:57:09.603Z,41.35
2018-09-26T17:59:35.326Z,41.33
2018-09-26T18:02:00.812Z,41.44
2018-09-26T18:04:28.987Z,41.25
2018-09-26T18:06:54.467Z,41.13
2018-09-26T18:09:20.018Z,41.57
2018-09-26T18:11:45.531Z,41.54
2018-09-26T18:14:11.082Z,41.66
2018-09-26T18:16:36.656Z,41.45
2018-09-26T18:19:02.363Z,41.71
2018-09-26T18:21:27.848Z,41.71
2018-09-26T18:23:53.362Z,41.70
2018-09-26T18:26:20.307Z,41.99
2018-09-26T18:28:45.974Z,41.80
2018-09-26T18:31:11.582Z,41.55
2018-09-26T18:33:37.040Z,41.53
2018-09-26T18:36:02.560Z,41.63
2018-09-26T18:38:28.033Z,41.69
2018-09-26T18:40:53.531Z,41.47
2018-09-26T18:43:19.073Z,41.55
2018-09-26T18:45:44.520Z,41.44
2018-09-26T18:48:10.025Z,40.92
2018-09-26T18:50:35.545Z,40.64
2018-09-26T18:53:01.046Z,40.83
2018-09-26T18:55:26.547Z,40.88
2018-09-26T18:57:52.048Z,40.67
2018-09-26T19:00:17.635Z,40.72
2018-09-26T19:02:43.117Z,41.08
2018-09-26T19:05:08.668Z,40.83
2018-09-26T19:07:34.171Z,40.81
2018-09-26T19:10:01.009Z,40.69
2018-09-26T19:12:26.644Z,40.63
2018-09-26T19:14:52.049Z,40.61
2018-09-26T19:17:19.033Z,40.51
2018-09-26T19:19:45.016Z,40.67
2018-09-26T19:22:15.007Z,40.75
2018-09-26T19:24:40.545Z,40.49
2018-09-26T19:27:06.077Z,40.64
2018-09-26T19:29:31.531Z,40.62
2018-09-26T19:31:57.008Z,40.40
2018-09-26T19:34:22.493Z,40.42
2018-09-26T19:36:47.998Z,40.55
2018-09-26T19:39:13.842Z,40.47
2018-09-26T19:41:39.404Z,40.37
2018-09-26T19:44:04.909Z,40.37
2018-09-26T19:46:30.415Z,40.68
2018-09-26T19:48:55.926Z,40.30
2018-09-26T19:51:21.435Z,40.54
2018-09-26T19:53:47.002Z,40.31
2018-09-26T19:56:12.618Z,40.12
2018-09-26T19:58:37.988Z,40.04
2018-09-26T20:01:03.519Z,40.07
2018-09-26T20:03:29.019Z,40.15
2018-09-26T20:05:54.545Z,41.70
2018-09-26T20:08:20.056Z,42.23
2018-09-26T20:10:45.570Z,42.34
2018-09-26T20:13:11.115Z,42.34
2018-09-26T20:15:36.583Z,42.37
2018-09-26T20:18:02.061Z,42.20
2018-09-26T20:20:27.564Z,42.26
2018-09-26T20:22:53.090Z,42.22
2018-09-26T20:25:18.597Z,42.25
2018-09-26T20:27:44.093Z,42.26
2018-09-26T20:30:09.578Z,42.28
2018-09-26T20:32:35.092Z,42.11
2018-09-26T20:35:00.589Z,42.25
2018-09-26T20:37:26.090Z,42.26
2018-09-26T20:39:51.601Z,42.12
2018-09-26T20:42:17.100Z,42.12
2018-09-26T20:44:42.637Z,42.13
2018-09-26T20:47:08.123Z,42.14
2018-09-26T20:49:33.612Z,42.20
2018-09-26T20:51:59.185Z,42.12
2018-09-26T20:54:24.690Z,42.01
2018-09-26T20:56:50.184Z,42.02
2018-09-26T20:59:15.708Z,42.11
2018-09-26T21:01:41.208Z,42.14
2018-09-26T21:04:06.713Z,42.11
2018-09-26T21:06:32.216Z,42.01
2018-09-26T21:08:57.711Z,42.00
2018-09-26T21:11:23.204Z,41.93
2018-09-26T21:13:48.712Z,41.98
2018-09-26T21:16:14.211Z,42.01
2018-09-26T21:18:39.706Z,41.92
2018-09-26T21:21:05.218Z,41.92
2018-09-26T21:23:30.691Z,41.84
2018-09-26T21:25:56.202Z,41.90
2018-09-26T21:28:21.700Z,41.90
2018-09-26T21:30:47.205Z,41.75
2018-09-26T21:33:12.688Z,41.89
2018-09-26T21:35:38.169Z,41.94
2018-09-26T21:38:03.676Z,41.82
2018-09-26T21:40:29.186Z,41.88
2018-09-26T21:42:54.713Z,41.92
2018-09-26T21:45:20.192Z,41.76
2018-09-26T21:47:45.662Z,41.80
2018-09-26T21:50:11.252Z,41.75
2018-09-26T21:52:36.681Z,41.83
2018-09-26T21:55:02.180Z,41.87
2018-09-26T21:57:27.659Z,41.81
2018-09-26T21:59:53.181Z,41.79
2018-09-26T22:02:18.666Z,41.68
2018-09-26T22:04:44.164Z,41.71
2018-09-26T22:07:09.661Z,41.64
2018-09-26T22:09:35.157Z,41.79
2018-09-26T22:12:00.661Z,41.72
2018-09-26T22:14:26.163Z,41.65
2018-09-26T22:16:51.643Z,41.68
2018-09-26T22:19:17.141Z,41.79
2018-09-26T22:21:42.629Z,41.58
2018-09-26T22:24:08.102Z,41.54
2018-09-26T22:26:33.587Z,41.71
2018-09-26T22:28:59.091Z,41.69
2018-09-26T22:31:24.634Z,41.57
2018-09-26T22:33:50.045Z,41.70
2018-09-26T22:36:15.521Z,41.64
2018-09-26T22:38:41.003Z,41.57
2018-09-26T22:41:06.513Z,41.65
2018-09-26T22:43:31.995Z,41.69
2018-09-26T22:45:57.509Z,41.52
2018-09-26T22:48:23.008Z,41.58
2018-09-26T22:50:48.492Z,41.60
2018-09-26T22:53:13.970Z,41.41
2018-09-26T22:55:39.468Z,41.53
2018-09-26T22:58:04.996Z,41.54
2018-09-26T23:00:30.508Z,41.51
2018-09-26T23:02:56.014Z,41.47
2018-09-26T23:05:21.502Z,41.49
2018-09-26T23:07:46.992Z,41.45
2018-09-26T23:10:12.468Z,41.43
2018-09-26T23:12:37.968Z,41.46
2018-09-26T23:15:03.445Z,41.46
2018-09-26T23:17:28.927Z,41.41
2018-09-26T23:19:54.399Z,41.49
2018-09-26T23:22:19.880Z,41.45
2018-09-26T23:24:45.379Z,41.51
2018-09-26T23:27:10.875Z,41.39
2018-09-26T23:29:36.379Z,41.40
2018-09-26T23:32:01.867Z,41.36
2018-09-26T23:34:27.368Z,41.32
2018-09-26T23:36:52.843Z,41.26
2018-09-26T23:39:18.345Z,41.47
2018-09-26T23:41:43.847Z,41.20
2018-09-26T23:44:09.324Z,41.35
2018-09-26T23:46:34.838Z,41.43
2018-09-26T23:49:00.338Z,41.43
2018-09-26T23:51:25.826Z,41.43
2018-09-26T23:53:51.302Z,41.38
2018-09-26T23:56:16.784Z,41.45
2018-09-26T23:58:42.284Z,41.23
